Terminal Aerodrome Forecast
Issued by NWS Huntsville, AL

Home | Current Version | Previous Version | Text Only | Print | Product List | Glossary On
Versions: 1 2 3 4 5 6 7 8 9 10 11 12 13 14 15 16 17 18 19 20 21 22 23 24 25 26 27 28 29 30 31 32
000
FTUS44 KHUN 251120
TAFHSV
TAF
KHSV 251120Z 2512/2612 14010KT P6SM FEW004 BKN110
     FM251400 22013KT P6SM BKN110
     FM251900 23015G22KT P6SM VCTS BKN030CB
     FM260000 23011KT P6SM FEW050
     FM260600 25005KT P6SM SCT030=

USA.gov is the U.S. government's official web portal to all federal, state and local government web resources and services.